Time;durP1;ratioP1;P1;durP2;ratioP2;P2;SDS_P1;SDS_P2;PMS_P1;PMS_P2;Temp;Humidity;BMP_temperature;BMP_pressure;BME280_temperature;BME280_humidity;BME280_pressure;Samples;Min_cycle;Max_cycle;Signal;HPM_P1;HPM_P2
2023/10/27 00:01:10;;;;;;;0.65;0.65;;;12.10;99.90;;;;;;4985662;28;20104;-81
2023/10/27 00:03:36;;;;;;;0.95;0.95;;;12.10;99.90;;;;;;4973478;28;20054;-81
2023/10/27 00:06:02;;;;;;;0.50;0.50;;;12.10;99.90;;;;;;4976220;28;20544;-80
2023/10/27 00:08:30;;;;;;;0.85;0.85;;;12.00;99.90;;;;;;4969631;28;20054;-81
2023/10/27 00:11:04;;;;;;;0.43;0.43;;;12.00;99.90;;;;;;4975748;28;20522;-80
2023/10/27 00:13:29;;;;;;;0.68;0.68;;;12.00;99.90;;;;;;4971910;28;20027;-82
2023/10/27 00:15:55;;;;;;;0.70;0.70;;;12.00;99.90;;;;;;4969498;28;20038;-81
2023/10/27 00:18:21;;;;;;;1.35;1.35;;;12.00;99.90;;;;;;4971503;28;20162;-81
2023/10/27 00:20:48;;;;;;;0.35;0.35;;;12.00;99.90;;;;;;4984798;28;20128;-78
2023/10/27 00:23:15;;;;;;;1.08;0.93;;;11.90;99.90;;;;;;4967055;28;20022;-78
2023/10/27 00:25:41;;;;;;;0.73;0.73;;;11.80;99.90;;;;;;4969572;28;20058;-79
2023/10/27 00:28:09;;;;;;;0.30;0.30;;;11.80;99.90;;;;;;4970191;28;20498;-78
2023/10/27 00:30:34;;;;;;;0.80;0.80;;;11.80;99.90;;;;;;4972632;28;20110;-79
2023/10/27 00:33:00;;;;;;;0.85;0.85;;;11.80;99.90;;;;;;4968027;28;20618;-78
2023/10/27 00:35:26;;;;;;;0.90;0.90;;;11.70;99.90;;;;;;4968222;28;20030;-78
2023/10/27 00:37:51;;;;;;;0.65;0.65;;;11.70;99.90;;;;;;4972109;28;20022;-82
2023/10/27 00:40:17;;;;;;;0.43;0.43;;;11.70;99.90;;;;;;4984228;28;20510;-78
2023/10/27 00:42:42;;;;;;;0.68;0.68;;;11.70;99.90;;;;;;4971765;28;20019;-81
2023/10/27 00:45:08;;;;;;;1.05;1.05;;;11.70;99.90;;;;;;4971957;28;20070;-79
2023/10/27 00:47:34;;;;;;;0.70;0.70;;;11.70;99.90;;;;;;4969161;28;20110;-78
2023/10/27 00:50:01;;;;;;;0.47;0.47;;;11.70;99.90;;;;;;4969426;28;20375;-80
2023/10/27 00:52:29;;;;;;;0.28;0.28;;;11.70;99.90;;;;;;4967310;28;20440;-78
2023/10/27 00:54:57;;;;;;;0.65;0.65;;;11.70;99.90;;;;;;4969085;28;20101;-82
2023/10/27 00:57:25;;;;;;;0.50;0.50;;;11.70;99.90;;;;;;4968060;28;20438;-81
2023/10/27 00:59:51;;;;;;;0.65;0.65;;;11.80;99.90;;;;;;4970241;28;20471;-78
2023/10/27 01:02:18;;;;;;;0.57;0.57;;;11.80;99.90;;;;;;4972933;28;20129;-82
2023/10/27 01:04:45;;;;;;;0.50;0.50;;;11.80;99.90;;;;;;4971648;28;20265;-79
2023/10/27 01:07:13;;;;;;;0.80;0.80;;;11.80;99.90;;;;;;4969432;28;20558;-78
2023/10/27 01:09:38;;;;;;;0.73;0.73;;;11.90;99.90;;;;;;4986234;28;20381;-78
2023/10/27 01:12:04;;;;;;;0.55;0.55;;;11.90;99.90;;;;;;4970116;28;20035;-78
2023/10/27 01:14:30;;;;;;;0.28;0.28;;;11.90;99.90;;;;;;4970836;28;20311;-78
2023/10/27 01:16:57;;;;;;;0.40;0.40;;;11.90;99.90;;;;;;4985317;28;20032;-78
2023/10/27 01:19:22;;;;;;;0.85;0.85;;;11.80;99.90;;;;;;4969095;28;20046;-78
2023/10/27 01:21:48;;;;;;;0.63;0.63;;;11.80;99.90;;;;;;4969987;28;20503;-81
2023/10/27 01:24:14;;;;;;;0.65;0.65;;;11.80;99.90;;;;;;4970411;28;20589;-78
2023/10/27 01:26:39;;;;;;;0.82;0.82;;;11.80;99.90;;;;;;4968982;28;20053;-77
2023/10/27 01:29:05;;;;;;;0.47;0.47;;;11.80;99.90;;;;;;4977486;28;20565;-80
2023/10/27 01:31:30;;;;;;;0.63;0.63;;;11.70;99.90;;;;;;4976608;28;20026;-80
2023/10/27 01:33:56;;;;;;;0.95;0.95;;;11.70;99.90;;;;;;4972643;28;20034;-79
2023/10/27 01:36:22;;;;;;;0.73;0.73;;;11.70;99.90;;;;;;4967731;28;20363;-78
2023/10/27 01:38:47;;;;;;;0.35;0.35;;;11.70;99.90;;;;;;4967253;28;20073;-79
2023/10/27 01:41:13;;;;;;;0.70;0.70;;;11.80;99.90;;;;;;4967205;28;20053;-78
2023/10/27 01:43:38;;;;;;;0.90;0.65;;;11.80;99.90;;;;;;4967335;28;20474;-80
2023/10/27 01:46:04;;;;;;;1.25;1.25;;;11.80;99.90;;;;;;4974802;28;20192;-81
2023/10/27 01:48:32;;;;;;;1.25;1.25;;;11.90;99.90;;;;;;4970355;28;20438;-78
2023/10/27 01:50:57;;;;;;;0.50;0.50;;;11.90;99.90;;;;;;4968295;28;20026;-78
2023/10/27 01:53:23;;;;;;;0.70;0.70;;;11.90;99.90;;;;;;4967647;28;20077;-78
2023/10/27 01:55:48;;;;;;;0.70;0.70;;;11.90;99.90;;;;;;4967853;28;20605;-81
2023/10/27 01:58:14;;;;;;;0.52;0.52;;;11.90;99.90;;;;;;4974035;28;20034;-78
2023/10/27 02:00:42;;;;;;;0.20;0.20;;;11.90;99.90;;;;;;4966646;28;20734;-78
2023/10/27 02:03:07;;;;;;;0.47;0.47;;;11.90;99.90;;;;;;4970275;28;20089;-82
2023/10/27 02:05:33;;;;;;;0.40;0.40;;;11.90;99.90;;;;;;4969441;28;20030;-79
2023/10/27 02:08:02;;;;;;;0.20;0.20;;;11.90;99.90;;;;;;4984919;28;20112;-80
2023/10/27 02:10:27;;;;;;;0.80;0.80;;;11.90;99.90;;;;;;4968610;28;20038;-80
2023/10/27 02:12:55;;;;;;;0.30;0.30;;;11.90;99.90;;;;;;4967085;28;20011;-81
2023/10/27 02:15:21;;;;;;;1.48;1.08;;;11.90;99.90;;;;;;4970714;28;20226;-81
2023/10/27 02:17:47;;;;;;;0.85;0.30;;;11.90;99.90;;;;;;4968782;28;20037;-80
2023/10/27 02:20:12;;;;;;;0.30;0.30;;;11.90;99.90;;;;;;4984696;28;20027;-81
2023/10/27 02:22:38;;;;;;;0.40;0.40;;;12.00;99.90;;;;;;4969712;28;20027;-80
2023/10/27 02:25:04;;;;;;;0.30;0.30;;;12.10;99.90;;;;;;4970204;28;20030;-80
2023/10/27 02:27:31;;;;;;;1.02;1.02;;;12.10;99.90;;;;;;4970017;28;20481;-80
2023/10/27 02:29:57;;;;;;;0.35;0.35;;;12.10;99.90;;;;;;4984365;28;20050;-80
2023/10/27 02:32:22;;;;;;;0.40;0.40;;;12.10;99.90;;;;;;4969510;28;20018;-80
2023/10/27 02:34:48;;;;;;;0.40;0.35;;;12.10;99.90;;;;;;4970351;28;20027;-81
2023/10/27 02:37:13;;;;;;;0.82;0.82;;;12.10;99.90;;;;;;4966328;28;20022;-80
2023/10/27 02:39:39;;;;;;;0.50;0.50;;;12.20;99.90;;;;;;4966109;28;20197;-80
2023/10/27 02:42:05;;;;;;;0.30;0.30;;;12.20;99.90;;;;;;4968299;28;20246;-80
2023/10/27 02:44:31;;;;;;;0.20;0.20;;;12.20;99.90;;;;;;4968955;28;20074;-80
2023/10/27 02:46:56;;;;;;;0.73;0.73;;;12.20;99.90;;;;;;4967911;28;20487;-80
2023/10/27 02:49:22;;;;;;;0.30;0.30;;;12.20;99.90;;;;;;4965330;28;20042;-78
2023/10/27 02:51:47;;;;;;;0.30;0.30;;;12.30;99.90;;;;;;4967109;28;20578;-81
2023/10/27 02:54:13;;;;;;;1.20;1.20;;;12.30;99.90;;;;;;4967481;28;20045;-79
2023/10/27 02:56:39;;;;;;;0.30;0.30;;;12.40;99.90;;;;;;4985876;28;20030;-79
2023/10/27 02:59:05;;;;;;;0.63;0.63;;;12.30;99.90;;;;;;4985794;28;20026;-80
2023/10/27 03:01:31;;;;;;;0.63;0.63;;;12.40;99.90;;;;;;4974032;28;20518;-80
2023/10/27 03:03:56;;;;;;;0.77;0.77;;;12.40;99.90;;;;;;4973890;28;20161;-79
2023/10/27 03:06:22;;;;;;;0.60;0.60;;;12.40;99.90;;;;;;4977909;28;20035;-80
2023/10/27 03:08:49;;;;;;;0.50;0.50;;;12.40;99.90;;;;;;4974244;28;20511;-79
2023/10/27 03:11:14;;;;;;;0.40;0.40;;;12.50;99.90;;;;;;4972775;28;20019;-80
2023/10/27 03:13:40;;;;;;;0.52;0.52;;;12.50;99.90;;;;;;4975003;28;20034;-80
2023/10/27 03:16:06;;;;;;;0.45;0.45;;;12.50;99.90;;;;;;4972668;28;20381;-80
2023/10/27 03:18:32;;;;;;;0.50;0.50;;;12.50;99.90;;;;;;4970621;28;20025;-80
2023/10/27 03:20:59;;;;;;;0.40;0.40;;;12.60;99.90;;;;;;4971000;28;20218;-79
2023/10/27 03:23:26;;;;;;;0.40;0.40;;;12.60;99.90;;;;;;4973364;28;20034;-80
2023/10/27 03:25:53;;;;;;;0.65;0.65;;;12.60;99.90;;;;;;4984808;28;20080;-80
2023/10/27 03:28:20;;;;;;;0.40;0.40;;;12.60;99.90;;;;;;4973914;28;20022;-80
2023/10/27 03:30:47;;;;;;;0.47;0.47;;;12.60;99.90;;;;;;4987059;28;20049;-81
2023/10/27 03:33:13;;;;;;;0.52;0.52;;;12.60;99.90;;;;;;4972563;28;20049;-80
2023/10/27 03:35:42;;;;;;;0.63;0.63;;;12.60;99.90;;;;;;4973307;28;20019;-80
2023/10/27 03:38:08;;;;;;;0.30;0.30;;;12.70;99.90;;;;;;4976660;28;20034;-80
2023/10/27 03:40:34;;;;;;;0.40;0.40;;;12.70;99.90;;;;;;4972222;28;20023;-79
2023/10/27 03:42:59;;;;;;;1.05;1.05;;;12.70;99.90;;;;;;4970647;28;20045;-80
2023/10/27 03:45:25;;;;;;;0.50;0.50;;;12.70;99.90;;;;;;4968739;28;20077;-79
2023/10/27 03:47:51;;;;;;;0.73;0.73;;;12.70;99.90;;;;;;4973124;28;20023;-80
2023/10/27 03:50:16;;;;;;;0.73;0.73;;;12.70;99.90;;;;;;4973504;28;20103;-79
2023/10/27 03:52:42;;;;;;;0.60;0.60;;;12.70;99.90;;;;;;4969368;28;20038;-80
2023/10/27 03:55:11;;;;;;;0.55;0.55;;;12.70;99.90;;;;;;4986164;28;20034;-79
2023/10/27 03:57:40;;;;;;;0.30;0.30;;;12.80;99.90;;;;;;4984959;28;20065;-79
2023/10/27 04:00:07;;;;;;;0.30;0.30;;;12.80;99.90;;;;;;4971540;28;20030;-79
2023/10/27 04:02:36;;;;;;;0.60;0.60;;;12.80;99.90;;;;;;4983822;28;20144;-79
2023/10/27 04:05:03;;;;;;;0.32;0.32;;;12.70;99.90;;;;;;4976027;28;20124;-79
2023/10/27 04:07:29;;;;;;;0.55;0.55;;;12.70;99.90;;;;;;4971501;28;20586;-80
2023/10/27 04:09:55;;;;;;;0.43;0.43;;;12.70;99.90;;;;;;4972106;28;20126;-80
2023/10/27 04:12:21;;;;;;;0.43;0.43;;;12.70;99.90;;;;;;4967335;28;20733;-79
2023/10/27 04:14:48;;;;;;;0.40;0.40;;;12.70;99.90;;;;;;4973211;28;20026;-79
2023/10/27 04:17:14;;;;;;;0.77;0.77;;;12.70;99.90;;;;;;4969577;28;20022;-79
2023/10/27 04:19:43;;;;;;;0.35;0.35;;;12.70;99.90;;;;;;4974315;28;20088;-80
2023/10/27 04:22:08;;;;;;;0.52;0.52;;;12.70;99.90;;;;;;4971265;28;20336;-79
2023/10/27 04:24:34;;;;;;;2.00;1.05;;;12.80;99.90;;;;;;4971976;28;20027;-80
2023/10/27 04:27:00;;;;;;;1.35;1.15;;;12.80;99.90;;;;;;4972669;28;20257;-79
2023/10/27 04:29:25;;;;;;;0.35;0.35;;;12.80;99.90;;;;;;4983236;28;20080;-79
2023/10/27 04:31:51;;;;;;;0.28;0.28;;;12.80;99.90;;;;;;4971260;28;20030;-79
2023/10/27 04:34:17;;;;;;;0.35;0.35;;;12.70;99.90;;;;;;4974371;28;20042;-80
2023/10/27 04:36:43;;;;;;;0.73;0.73;;;12.70;99.90;;;;;;4970391;28;20026;-80
2023/10/27 04:39:09;;;;;;;0.38;0.38;;;12.70;99.90;;;;;;4974911;28;20458;-78
2023/10/27 04:41:35;;;;;;;0.40;0.40;;;12.70;99.90;;;;;;4983356;28;20034;-78
2023/10/27 04:44:00;;;;;;;0.45;0.45;;;12.70;99.90;;;;;;4969813;28;20403;-79
2023/10/27 04:46:26;;;;;;;0.30;0.30;;;12.70;99.90;;;;;;4971362;28;20027;-80
2023/10/27 04:48:52;;;;;;;0.43;0.43;;;12.60;99.90;;;;;;4965965;28;20047;-78
2023/10/27 04:51:17;;;;;;;0.30;0.30;;;12.70;99.90;;;;;;4970986;28;20874;-78
2023/10/27 04:53:48;;;;;;;0.30;0.30;;;12.60;99.90;;;;;;4981237;28;20035;-79
2023/10/27 04:56:14;;;;;;;0.20;0.20;;;12.60;99.90;;;;;;4975684;28;20058;-79
2023/10/27 04:58:42;;;;;;;0.40;0.40;;;12.60;99.90;;;;;;4970708;28;20058;-78
2023/10/27 05:01:08;;;;;;;0.30;0.30;;;12.60;99.90;;;;;;4970717;28;20050;-79
2023/10/27 05:03:33;;;;;;;0.40;0.40;;;12.60;99.90;;;;;;4967706;28;20078;-79
2023/10/27 05:06:09;;;;;;;0.40;0.40;;;12.60;99.90;;;;;;4985886;28;20027;-79
2023/10/27 05:08:35;;;;;;;0.30;0.30;;;12.60;99.90;;;;;;4984813;28;20577;-79
2023/10/27 05:11:04;;;;;;;0.32;0.32;;;12.60;99.90;;;;;;4968040;28;20045;-79
2023/10/27 05:13:30;;;;;;;0.30;0.30;;;12.60;99.90;;;;;;4967843;28;20034;-79
2023/10/27 05:15:55;;;;;;;0.50;0.50;;;12.50;99.90;;;;;;4972272;28;20023;-79
2023/10/27 05:18:21;;;;;;;0.40;0.40;;;12.50;99.90;;;;;;4970590;28;20033;-79
2023/10/27 05:20:48;;;;;;;0.30;0.30;;;12.60;99.90;;;;;;4971062;28;20306;-79
2023/10/27 05:23:14;;;;;;;0.32;0.32;;;12.50;99.90;;;;;;4968018;28;20019;-80
2023/10/27 05:25:40;;;;;;;0.38;0.38;;;12.60;99.90;;;;;;4965888;28;20431;-79
2023/10/27 05:28:07;;;;;;;0.50;0.50;;;12.50;99.90;;;;;;4975607;28;20027;-79
2023/10/27 05:30:38;;;;;;;0.65;0.65;;;12.50;99.90;;;;;;4983848;28;20035;-78
2023/10/27 05:33:04;;;;;;;0.38;0.38;;;12.50;99.90;;;;;;4970244;28;20178;-79
2023/10/27 05:35:29;;;;;;;1.20;1.20;;;12.50;99.90;;;;;;4970368;28;20093;-79
2023/10/27 05:37:55;;;;;;;0.38;0.38;;;12.50;99.90;;;;;;4967664;28;20038;-79
2023/10/27 05:40:22;;;;;;;0.30;0.30;;;12.50;99.90;;;;;;4970308;28;20482;-80
2023/10/27 05:42:48;;;;;;;0.35;0.35;;;12.50;99.90;;;;;;4974191;28;20026;-79
2023/10/27 05:45:14;;;;;;;0.77;0.77;;;12.50;99.90;;;;;;4970850;28;20447;-79
2023/10/27 05:47:40;;;;;;;1.65;1.40;;;12.50;99.90;;;;;;4972250;28;20042;-78
2023/10/27 05:50:08;;;;;;;0.40;0.40;;;12.50;99.90;;;;;;4970375;28;20118;-78
2023/10/27 05:52:34;;;;;;;0.40;0.40;;;12.40;99.90;;;;;;4975861;28;20018;-80
2023/10/27 05:55:00;;;;;;;0.35;0.35;;;12.40;99.90;;;;;;4967950;28;20019;-80
2023/10/27 05:57:27;;;;;;;0.30;0.30;;;12.40;99.90;;;;;;4970281;28;20037;-79
2023/10/27 05:59:53;;;;;;;0.43;0.43;;;12.40;99.90;;;;;;4973007;28;20479;-78
2023/10/27 06:02:20;;;;;;;0.30;0.30;;;12.40;99.90;;;;;;4967657;28;20031;-81
2023/10/27 06:04:45;;;;;;;0.20;0.20;;;12.40;99.90;;;;;;4985620;28;20039;-79
2023/10/27 06:07:15;;;;;;;0.30;0.30;;;12.40;99.90;;;;;;4968057;28;20403;-79
2023/10/27 06:09:41;;;;;;;0.30;0.30;;;12.40;99.90;;;;;;4983892;28;20067;-78
2023/10/27 06:12:07;;;;;;;0.30;0.30;;;12.30;99.90;;;;;;4969320;28;20065;-79
2023/10/27 06:14:33;;;;;;;0.20;0.20;;;12.30;99.90;;;;;;4981790;28;20094;-80
2023/10/27 06:16:58;;;;;;;0.30;0.30;;;12.30;99.90;;;;;;4988116;28;20018;-78
2023/10/27 06:19:25;;;;;;;0.40;0.40;;;12.30;99.90;;;;;;4968627;28;20034;-79
2023/10/27 06:21:50;;;;;;;0.20;0.20;;;12.30;99.90;;;;;;4970720;28;20038;-79
2023/10/27 06:24:16;;;;;;;0.75;0.75;;;12.30;99.90;;;;;;4970282;28;20023;-78
2023/10/27 06:26:42;;;;;;;0.30;0.30;;;12.30;99.90;;;;;;4972209;28;20114;-79
2023/10/27 06:29:08;;;;;;;0.35;0.35;;;12.30;99.90;;;;;;4973717;28;20566;-78
2023/10/27 06:31:33;;;;;;;1.05;1.05;;;12.30;99.90;;;;;;4985466;28;20019;-80
2023/10/27 06:33:59;;;;;;;0.80;0.80;;;12.20;99.90;;;;;;4986411;28;20123;-78
2023/10/27 06:36:25;;;;;;;0.30;0.30;;;12.20;99.90;;;;;;4988359;28;20034;-79
2023/10/27 06:38:51;;;;;;;0.70;0.70;;;12.20;99.90;;;;;;4973285;28;20339;-78
2023/10/27 06:41:16;;;;;;;0.30;0.30;;;12.20;99.90;;;;;;4972335;28;20054;-78
2023/10/27 06:43:44;;;;;;;0.43;0.43;;;12.20;99.90;;;;;;4967328;28;20484;-78
2023/10/27 06:46:11;;;;;;;0.82;0.82;;;12.20;99.90;;;;;;4971522;28;20378;-78
2023/10/27 06:48:37;;;;;;;0.40;0.40;;;12.20;99.90;;;;;;4972745;28;20271;-81
2023/10/27 06:51:03;;;;;;;0.32;0.32;;;12.20;99.90;;;;;;4989529;28;20042;-81
2023/10/27 06:53:31;;;;;;;1.40;0.70;;;12.20;99.90;;;;;;4971256;28;20030;-80
2023/10/27 06:55:56;;;;;;;0.40;0.40;;;12.20;99.90;;;;;;4969887;28;20038;-80
2023/10/27 06:58:22;;;;;;;0.30;0.30;;;12.20;99.90;;;;;;4985531;28;20140;-81
2023/10/27 07:00:47;;;;;;;0.30;0.30;;;12.30;99.90;;;;;;5004993;28;20042;-82
2023/10/27 07:03:13;;;;;;;0.30;0.30;;;12.20;99.90;;;;;;4972623;28;20398;-81
2023/10/27 07:05:39;;;;;;;0.20;0.20;;;12.20;99.90;;;;;;4968737;28;20363;-81
2023/10/27 07:08:06;;;;;;;0.30;0.30;;;12.40;99.90;;;;;;4934056;28;1105905;-81
2023/10/27 07:10:32;;;;;;;0.50;0.50;;;12.30;99.90;;;;;;4973509;28;20041;-79
2023/10/27 07:12:58;;;;;;;0.75;0.55;;;12.20;99.90;;;;;;4972278;28;20023;-81
2023/10/27 07:15:24;;;;;;;0.75;0.75;;;12.30;99.90;;;;;;4976981;28;20029;-84
2023/10/27 07:17:49;;;;;;;0.32;0.32;;;12.30;99.90;;;;;;4986753;28;20041;-81
2023/10/27 07:20:15;;;;;;;0.43;0.43;;;12.30;99.90;;;;;;4974040;28;20583;-82
2023/10/27 07:22:41;;;;;;;0.30;0.30;;;12.30;99.90;;;;;;4974315;28;20090;-82
2023/10/27 07:25:07;;;;;;;0.47;0.47;;;12.30;99.90;;;;;;4974896;28;20026;-80
2023/10/27 07:27:33;;;;;;;0.40;0.40;;;12.30;99.90;;;;;;4966856;28;20057;-81
2023/10/27 07:29:59;;;;;;;0.40;0.40;;;12.30;99.90;;;;;;5003549;28;20039;-79
2023/10/27 07:32:24;;;;;;;0.93;0.93;;;12.30;99.90;;;;;;4971094;28;20069;-80
2023/10/27 07:34:50;;;;;;;0.30;0.30;;;12.30;99.90;;;;;;4970318;28;20462;-84
2023/10/27 07:37:18;;;;;;;0.52;0.52;;;12.30;99.90;;;;;;4971056;28;20078;-81
2023/10/27 07:39:45;;;;;;;0.40;0.40;;;12.30;99.90;;;;;;4976455;28;20050;-86
2023/10/27 07:42:13;;;;;;;0.20;0.20;;;12.30;99.90;;;;;;4986704;28;20471;-82
2023/10/27 07:44:41;;;;;;;0.32;0.32;;;12.30;99.90;;;;;;4972320;28;20116;-84
2023/10/27 07:47:09;;;;;;;0.80;0.80;;;12.30;99.90;;;;;;4970158;28;20054;-81
2023/10/27 07:49:35;;;;;;;0.60;0.60;;;12.40;99.90;;;;;;4970756;28;20050;-84
2023/10/27 07:52:03;;;;;;;0.25;0.25;;;12.30;99.90;;;;;;4973453;28;20026;-79
2023/10/27 07:54:29;;;;;;;0.25;0.25;;;12.40;99.90;;;;;;4971477;28;20380;-79
2023/10/27 07:56:54;;;;;;;0.77;0.43;;;12.40;99.90;;;;;;4968848;28;20042;-81
2023/10/27 07:59:20;;;;;;;0.20;0.20;;;12.40;99.90;;;;;;4971780;28;20041;-80
2023/10/27 08:01:48;;;;;;;0.30;0.30;;;12.40;99.90;;;;;;4966267;28;20022;-80
2023/10/27 08:04:13;;;;;;;0.20;0.20;;;12.50;99.90;;;;;;4968029;28;20030;-80
2023/10/27 08:06:39;;;;;;;0.20;0.20;;;12.50;99.90;;;;;;4969197;28;20022;-86
2023/10/27 08:09:04;;;;;;;1.67;1.58;;;12.50;99.90;;;;;;4970285;28;20213;-84
2023/10/27 08:11:30;;;;;;;0.30;0.30;;;12.50;99.90;;;;;;4980855;28;20026;-83
2023/10/27 08:13:56;;;;;;;0.60;0.60;;;12.60;99.90;;;;;;4984000;28;20112;-84
2023/10/27 08:16:21;;;;;;;0.30;0.30;;;12.60;99.90;;;;;;4984964;28;20346;-86
2023/10/27 08:18:47;;;;;;;0.30;0.30;;;12.60;99.90;;;;;;4982389;28;20034;-84
2023/10/27 08:21:13;;;;;;;0.32;0.32;;;12.70;99.90;;;;;;4976978;28;20552;-86
2023/10/27 08:23:38;;;;;;;0.22;0.22;;;12.70;99.90;;;;;;4975903;28;20029;-87
2023/10/27 08:26:04;;;;;;;0.90;0.90;;;12.70;99.90;;;;;;4969666;28;20031;-87
2023/10/27 08:28:29;;;;;;;0.55;0.55;;;12.80;99.90;;;;;;4971810;28;20026;-86
2023/10/27 08:30:56;;;;;;;0.20;0.20;;;12.80;99.90;;;;;;4985438;28;20117;-86
2023/10/27 08:33:22;;;;;;;0.20;0.20;;;12.80;99.90;;;;;;4973271;28;20134;-80
2023/10/27 08:35:48;;;;;;;0.22;0.22;;;12.80;99.90;;;;;;5107741;23;20073;-87
2023/10/27 08:38:16;;;;;;;0.40;0.40;;;12.90;99.90;;;;;;4942573;28;20074;-88
2023/10/27 08:40:42;;;;;;;0.40;0.40;;;13.00;99.90;;;;;;4957272;28;20114;-86
2023/10/27 08:43:08;;;;;;;0.40;0.40;;;13.00;99.90;;;;;;4940235;28;20375;-88
2023/10/27 08:45:35;;;;;;;0.25;0.25;;;13.00;99.90;;;;;;4938100;28;20380;-87
2023/10/27 08:48:01;;;;;;;1.55;0.28;;;13.00;99.90;;;;;;4938659;28;20420;-85
2023/10/27 08:50:29;;;;;;;0.30;0.30;;;13.10;99.90;;;;;;4936415;28;20082;-84
2023/10/27 08:52:58;;;;;;;0.55;0.55;;;13.10;99.90;;;;;;4938284;28;20030;-83
2023/10/27 08:55:25;;;;;;;1.25;1.20;;;13.10;99.90;;;;;;4937966;28;20038;-91
2023/10/27 08:57:55;;;;;;;0.20;0.20;;;13.20;99.90;;;;;;4938620;28;20309;-85
2023/10/27 09:00:21;;;;;;;0.25;0.25;;;13.20;99.90;;;;;;4939933;28;20035;-89
2023/10/27 09:02:48;;;;;;;0.35;0.35;;;13.20;99.90;;;;;;4938948;28;20078;-87
2023/10/27 09:05:17;;;;;;;0.20;0.20;;;13.30;99.90;;;;;;4956325;28;20118;-87
2023/10/27 09:07:43;;;;;;;2.65;2.55;;;13.30;99.90;;;;;;4939065;28;20637;-86
2023/10/27 09:10:12;;;;;;;0.45;0.25;;;13.30;99.90;;;;;;4940739;28;20055;-87
2023/10/27 09:12:38;;;;;;;0.20;0.20;;;13.40;99.90;;;;;;4952883;28;20051;-88
2023/10/27 09:15:04;;;;;;;0.30;0.30;;;13.30;99.90;;;;;;4939482;28;20035;-85
2023/10/27 09:17:31;;;;;;;0.20;0.20;;;13.30;99.90;;;;;;4960260;28;20023;-86
2023/10/27 09:20:04;;;;;;;0.17;0.17;;;13.30;99.90;;;;;;4943418;28;20015;-88
2023/10/27 09:22:30;;;;;;;0.10;0.10;;;13.30;99.90;;;;;;4937108;28;20487;-90
2023/10/27 09:25:14;;;;;;;0.20;0.20;;;13.30;99.90;;;;;;4942377;28;20034;-86
2023/10/27 09:27:46;;;;;;;0.40;0.40;;;13.20;99.90;;;;;;4939068;28;20031;-86
2023/10/27 09:30:13;;;;;;;0.40;0.40;;;13.20;99.90;;;;;;4956867;28;20054;-89
2023/10/27 09:32:42;;;;;;;0.40;0.40;;;13.30;99.90;;;;;;4939488;28;20034;-87
2023/10/27 09:35:18;;;;;;;0.20;0.20;;;13.40;99.90;;;;;;4923796;29;20586;-90
2023/10/27 09:37:46;;;;;;;0.35;0.35;;;13.30;99.90;;;;;;4936080;28;20156;-81
2023/10/27 09:40:13;;;;;;;0.35;0.35;;;13.30;99.90;;;;;;4937630;28;20078;-86
2023/10/27 09:42:39;;;;;;;0.10;0.10;;;13.30;99.90;;;;;;4936643;28;20031;-82
2023/10/27 09:45:16;;;;;;;0.20;0.20;;;13.30;99.90;;;;;;4939660;28;20034;-86
2023/10/27 09:47:45;;;;;;;0.40;0.40;;;13.50;99.90;;;;;;4939730;28;20027;-84
2023/10/27 09:50:21;;;;;;;0.20;0.20;;;13.60;99.90;;;;;;4951817;28;20742;-83
2023/10/27 09:52:49;;;;;;;0.55;0.55;;;13.70;99.90;;;;;;4940235;28;20495;-79
2023/10/27 09:55:19;;;;;;;0.20;0.20;;;13.80;99.90;;;;;;4936815;28;20027;-88
2023/10/27 09:57:45;;;;;;;0.30;0.30;;;13.80;99.90;;;;;;4937462;28;20059;-87
2023/10/27 10:00:22;;;;;;;0.75;0.75;;;13.80;99.90;;;;;;4940160;28;20489;-89
2023/10/27 10:02:48;;;;;;;0.20;0.20;;;13.80;99.90;;;;;;4940050;28;20446;-81
2023/10/27 10:05:14;;;;;;;0.20;0.20;;;13.80;99.90;;;;;;4936715;28;20091;-85
2023/10/27 10:07:54;;;;;;;0.20;0.20;;;13.80;99.90;;;;;;4937845;28;20031;-81
2023/10/27 10:10:32;;;;;;;0.35;0.35;;;13.90;99.90;;;;;;4938212;28;20117;-85
2023/10/27 10:13:08;;;;;;;0.30;0.30;;;14.00;99.90;;;;;;4941816;28;20418;-84
2023/10/27 10:15:42;;;;;;;0.60;0.35;;;14.10;99.90;;;;;;4942344;28;20042;-83
2023/10/27 10:18:19;;;;;;;0.30;0.30;;;14.00;99.90;;;;;;4925843;28;20063;-89
2023/10/27 10:20:47;;;;;;;0.30;0.30;;;14.00;99.90;;;;;;4941366;28;20735;-85
2023/10/27 10:23:13;;;;;;;0.30;0.30;;;14.10;99.90;;;;;;4959429;28;20778;-82
2023/10/27 10:25:53;;;;;;;0.63;0.40;;;14.20;99.90;;;;;;4943757;28;20030;-88
2023/10/27 10:28:19;;;;;;;0.20;0.20;;;14.10;99.90;;;;;;4944329;28;20567;-85
2023/10/27 10:31:13;;;;;;;0.45;0.45;;;14.00;99.90;;;;;;4954622;28;20115;-85
2023/10/27 10:33:46;;;;;;;0.10;0.10;;;14.00;99.90;;;;;;4939683;28;20458;-85
2023/10/27 10:36:22;;;;;;;0.30;0.30;;;14.00;99.90;;;;;;4942125;28;20530;-90
2023/10/27 10:38:53;;;;;;;0.30;0.30;;;14.00;99.90;;;;;;4942884;28;20058;-84
2023/10/27 10:41:19;;;;;;;0.20;0.20;;;14.10;99.90;;;;;;4941029;28;20519;-83
2023/10/27 10:43:45;;;;;;;0.20;0.20;;;14.00;99.90;;;;;;4940136;28;20038;-84
2023/10/27 10:46:12;;;;;;;1.30;1.23;;;14.20;99.90;;;;;;4936351;28;20494;-83
2023/10/27 10:48:45;;;;;;;0.20;0.20;;;14.20;99.90;;;;;;4933161;28;20125;-84
2023/10/27 10:51:18;;;;;;;0.35;0.28;;;14.30;99.90;;;;;;4935692;28;20031;-86
2023/10/27 10:53:50;;;;;;;0.67;0.67;;;14.10;99.90;;;;;;4934383;28;20038;-84
2023/10/27 10:56:16;;;;;;;0.20;0.20;;;14.10;99.90;;;;;;4934810;28;20426;-85
2023/10/27 10:58:42;;;;;;;0.20;0.20;;;14.00;99.90;;;;;;4935553;28;20059;-86
2023/10/27 11:01:19;;;;;;;0.20;0.20;;;14.10;99.90;;;;;;4933494;28;20465;-86
2023/10/27 11:03:52;;;;;;;0.20;0.20;;;14.10;99.90;;;;;;4939613;28;20169;-89
2023/10/27 11:06:22;;;;;;;0.20;0.20;;;14.20;99.90;;;;;;4937712;28;20065;-84
2023/10/27 11:08:49;;;;;;;0.40;0.40;;;14.10;99.90;;;;;;4941767;28;20515;-88
2023/10/27 11:11:18;;;;;;;0.20;0.20;;;14.10;99.90;;;;;;4955994;28;20047;-85
2023/10/27 11:13:46;;;;;;;0.20;0.20;;;14.00;99.90;;;;;;4941353;28;20039;-84
2023/10/27 11:16:25;;;;;;;0.30;0.30;;;14.20;99.90;;;;;;4957812;28;20031;-85
2023/10/27 11:18:57;;;;;;;0.20;0.20;;;14.20;99.90;;;;;;4942152;28;20672;-89
2023/10/27 11:21:27;;;;;;;0.20;0.20;;;14.20;99.90;;;;;;4941034;28;20535;-87
2023/10/27 11:23:56;;;;;;;0.10;0.10;;;14.10;99.90;;;;;;4942974;28;20059;-87
2023/10/27 11:26:26;;;;;;;6.03;3.58;;;13.90;99.90;;;;;;4942808;28;20144;-85
2023/10/27 11:28:58;;;;;;;0.25;0.25;;;13.80;99.90;;;;;;4956964;28;20404;-85
2023/10/27 11:31:27;;;;;;;0.20;0.20;;;13.70;99.90;;;;;;4948491;28;20035;-78
2023/10/27 11:34:03;;;;;;;0.20;0.20;;;13.80;99.90;;;;;;4952451;28;20160;-82
2023/10/27 11:36:35;;;;;;;0.20;0.20;;;13.90;99.90;;;;;;4958715;28;20038;-89
2023/10/27 11:39:13;;;;;;;0.20;0.20;;;13.90;99.90;;;;;;4970296;28;20404;-83
2023/10/27 11:41:40;;;;;;;0.20;0.20;;;14.00;99.90;;;;;;4966949;28;20023;-85
2023/10/27 11:44:06;;;;;;;1.20;0.35;;;14.10;99.90;;;;;;4953492;28;20606;-88
2023/10/27 11:46:33;;;;;;;0.10;0.10;;;13.90;99.90;;;;;;4946449;28;20106;-85
2023/10/27 11:48:59;;;;;;;0.20;0.20;;;14.00;99.90;;;;;;4951017;28;20175;-83
2023/10/27 11:51:25;;;;;;;1.67;0.43;;;14.10;99.90;;;;;;4949230;28;20055;-84
2023/10/27 11:53:51;;;;;;;0.20;0.20;;;14.10;99.90;;;;;;4945588;28;20157;-86
2023/10/27 11:56:17;;;;;;;0.10;0.10;;;14.00;99.90;;;;;;4941687;28;20038;-87
2023/10/27 11:58:44;;;;;;;0.10;0.10;;;14.00;99.90;;;;;;4926929;28;20475;-85
2023/10/27 12:01:10;;;;;;;0.10;0.10;;;13.90;99.90;;;;;;4947284;28;20379;-91
2023/10/27 12:03:38;;;;;;;0.20;0.20;;;13.90;99.90;;;;;;4948840;28;20089;-85
2023/10/27 12:06:03;;;;;;;0.20;0.20;;;14.00;99.90;;;;;;4946685;28;20484;-87
2023/10/27 12:08:29;;;;;;;0.20;0.20;;;14.00;99.90;;;;;;4938472;28;20042;-83
2023/10/27 12:10:56;;;;;;;0.20;0.20;;;14.00;99.90;;;;;;4937082;28;20027;-85
2023/10/27 12:13:23;;;;;;;0.30;0.30;;;14.00;99.90;;;;;;4933473;28;20027;-86
2023/10/27 12:15:49;;;;;;;0.20;0.20;;;13.90;99.90;;;;;;4945182;28;20045;-86
2023/10/27 12:18:16;;;;;;;0.20;0.20;;;14.00;99.90;;;;;;4947324;28;20031;-91
2023/10/27 12:20:42;;;;;;;1.02;0.95;;;14.00;99.90;;;;;;4950354;28;20071;-85
2023/10/27 12:23:10;;;;;;;0.73;0.73;;;13.90;99.90;;;;;;4924184;28;20035;-86
2023/10/27 12:25:39;;;;;;;0.25;0.25;;;13.90;99.90;;;;;;4954099;28;20118;-88
2023/10/27 12:28:07;;;;;;;0.30;0.30;;;14.00;99.90;;;;;;4956356;28;20226;-91
2023/10/27 12:30:36;;;;;;;0.25;0.25;;;14.10;99.90;;;;;;4940418;28;20669;-87
2023/10/27 12:33:03;;;;;;;0.20;0.20;;;14.10;99.90;;;;;;4940363;28;20468;-83
2023/10/27 12:35:35;;;;;;;0.30;0.30;;;14.10;99.90;;;;;;4945886;28;20035;-84
2023/10/27 12:38:01;;;;;;;0.20;0.20;;;14.00;99.90;;;;;;4946261;28;20461;-85
2023/10/27 12:40:30;;;;;;;0.20;0.20;;;14.10;99.90;;;;;;4943982;28;20089;-82
2023/10/27 12:42:59;;;;;;;0.20;0.20;;;14.00;99.90;;;;;;4961399;28;20130;-84
2023/10/27 12:45:25;;;;;;;0.20;0.20;;;14.10;99.90;;;;;;4942314;28;20383;-85
2023/10/27 12:47:53;;;;;;;0.13;0.13;;;14.10;99.90;;;;;;4951609;28;20156;-86